createdAt,value
2019-04-05T00:02:23.585Z,32.47
2019-04-05T00:04:53.089Z,30.07
2019-04-05T00:07:22.640Z,29.60
2019-04-05T00:09:53.356Z,31.37
2019-04-05T00:12:22.840Z,29.53
2019-04-05T00:14:53.866Z,26.70
2019-04-05T00:17:25.074Z,28.40
2019-04-05T00:19:54.451Z,29.43
2019-04-05T00:22:23.909Z,28.90
2019-04-05T00:24:53.391Z,32.10
2019-04-05T00:27:23.476Z,27.87
2019-04-05T00:29:53.173Z,30.00
2019-04-05T00:32:24.363Z,27.47
2019-04-05T00:34:53.933Z,28.37
2019-04-05T00:37:24.679Z,29.03
2019-04-05T00:39:55.398Z,31.00
2019-04-05T00:42:27.088Z,31.60
2019-04-05T00:44:56.529Z,28.90
2019-04-05T00:47:29.114Z,29.23
2019-04-05T00:50:01.717Z,30.87
2019-04-05T00:52:32.322Z,25.87
2019-04-05T00:55:01.865Z,28.37
2019-04-05T00:57:31.689Z,32.50
2019-04-05T01:00:02.687Z,31.03
2019-04-05T01:02:32.355Z,25.87
2019-04-05T01:05:01.806Z,32.83
2019-04-05T01:07:34.116Z,29.63
2019-04-05T01:10:09.121Z,29.77
2019-04-05T01:12:41.379Z,30.20
2019-04-05T01:15:14.880Z,30.53
2019-04-05T01:17:44.482Z,28.37
2019-04-05T01:20:14.175Z,32.73
2019-04-05T01:22:46.164Z,31.03
2019-04-05T01:25:15.739Z,33.83
2019-04-05T01:27:48.228Z,26.33
2019-04-05T01:30:16.710Z,32.57
2019-04-05T01:32:48.133Z,26.70
2019-04-05T01:35:17.850Z,28.33
2019-04-05T01:37:47.752Z,30.00
2019-04-05T01:40:20.555Z,30.60
2019-04-05T01:42:51.959Z,27.43
2019-04-05T01:45:21.507Z,31.23
2019-04-05T01:47:52.095Z,33.23
2019-04-05T01:50:22.945Z,28.47
2019-04-05T01:52:52.518Z,29.27
2019-04-05T01:55:22.025Z,31.47
2019-04-05T01:57:51.561Z,31.03
2019-04-05T02:00:21.003Z,30.90
2019-04-05T02:02:50.579Z,29.83
2019-04-05T02:05:20.229Z,38.40
2019-04-05T02:07:50.808Z,29.73
2019-04-05T02:10:20.427Z,29.97
2019-04-05T02:12:49.935Z,31.03
2019-04-05T02:15:28.444Z,28.77
2019-04-05T02:17:58.367Z,32.73
2019-04-05T02:20:27.967Z,31.77
2019-04-05T02:22:58.165Z,33.30
2019-04-05T02:25:28.658Z,30.70
2019-04-05T02:27:58.383Z,34.37
2019-04-05T02:30:28.228Z,33.90
2019-04-05T02:32:58.873Z,30.53
2019-04-05T02:35:28.871Z,30.37
2019-04-05T02:37:58.410Z,30.13
2019-04-05T02:40:29.612Z,34.50
2019-04-05T02:43:01.692Z,33.03
2019-04-05T02:45:33.625Z,27.67
2019-04-05T02:48:06.068Z,30.30
2019-04-05T02:50:38.339Z,31.03
2019-04-05T02:53:10.804Z,28.87
2019-04-05T02:55:41.613Z,28.97
2019-04-05T02:58:12.963Z,25.90
2019-04-05T03:00:44.637Z,31.77
2019-04-05T03:03:16.624Z,29.70
2019-04-05T03:05:47.280Z,30.97
2019-04-05T03:08:18.196Z,36.53
2019-04-05T03:11:00.951Z,31.53
2019-04-05T03:13:33.804Z,29.43
2019-04-05T03:16:06.137Z,33.43
2019-04-05T03:18:39.656Z,29.73
2019-04-05T03:21:09.923Z,32.10
2019-04-05T03:23:42.811Z,30.83
2019-04-05T03:26:15.393Z,33.60
2019-04-05T03:28:49.025Z,33.53
2019-04-05T03:31:24.252Z,32.33
2019-04-05T03:33:50.735Z,33.93
2019-04-05T03:36:20.316Z,27.70
2019-04-05T03:38:49.913Z,33.47
2019-04-05T03:41:19.724Z,31.70
2019-04-05T03:43:50.452Z,30.20
2019-04-05T03:46:20.320Z,30.50
2019-04-05T03:48:50.319Z,30.17
2019-04-05T03:51:20.407Z,35.87
2019-04-05T03:53:50.491Z,28.33
2019-04-05T03:56:22.149Z,28.23
2019-04-05T03:58:52.773Z,29.53
2019-04-05T04:01:22.284Z,30.90
2019-04-05T04:03:51.751Z,35.63
2019-04-05T04:06:22.832Z,31.37
2019-04-05T04:08:53.957Z,34.67
2019-04-05T04:11:23.595Z,31.73
2019-04-05T04:13:54.858Z,33.83
2019-04-05T04:16:24.726Z,29.60
2019-04-05T04:18:54.233Z,31.97
2019-04-05T04:21:29.678Z,30.03
2019-04-05T04:24:01.314Z,31.17
2019-04-05T04:26:32.035Z,31.17
2019-04-05T04:29:01.617Z,27.70
2019-04-05T04:31:31.387Z,30.37
2019-04-05T04:34:04.749Z,33.60
2019-04-05T04:36:41.100Z,30.37
2019-04-05T04:39:10.893Z,27.77
2019-04-05T04:41:40.889Z,34.87
2019-04-05T04:44:10.389Z,34.57
2019-04-05T04:46:40.407Z,32.53
2019-04-05T04:49:10.551Z,31.47
2019-04-05T04:51:40.459Z,33.20
2019-04-05T04:54:10.612Z,30.07
2019-04-05T04:56:40.360Z,30.47
2019-04-05T04:59:09.875Z,33.17
2019-04-05T05:01:39.700Z,29.97
2019-04-05T05:04:09.563Z,27.40
2019-04-05T05:06:39.245Z,32.07
2019-04-05T05:09:08.947Z,32.23
2019-04-05T05:11:38.723Z,30.60
2019-04-05T05:14:15.784Z,26.50
2019-04-05T05:16:45.316Z,31.43
2019-04-05T05:19:15.078Z,31.93
2019-04-05T05:21:44.652Z,37.87
2019-04-05T05:24:14.274Z,32.30
2019-04-05T05:26:44.133Z,28.10
2019-04-05T05:29:13.663Z,32.37
2019-04-05T05:31:43.465Z,30.10
2019-04-05T05:34:13.152Z,33.83
2019-04-05T05:36:42.972Z,39.67
2019-04-05T05:39:12.416Z,37.37
2019-04-05T05:41:41.864Z,29.87
2019-04-05T05:44:11.384Z,34.10
2019-04-05T05:46:40.926Z,33.57
2019-04-05T05:49:10.524Z,34.17
2019-04-05T05:51:40.327Z,29.90
2019-04-05T05:54:09.785Z,35.13
2019-04-05T05:56:39.246Z,34.40
2019-04-05T05:59:08.685Z,34.13
2019-04-05T06:01:39.135Z,31.27
2019-04-05T06:04:08.565Z,34.23
2019-04-05T06:06:38.194Z,28.37
2019-04-05T06:09:08.243Z,30.80
2019-04-05T06:11:37.692Z,30.43
2019-04-05T06:14:07.202Z,34.67
2019-04-05T06:16:46.276Z,30.80
2019-04-05T06:19:07.750Z,30.53
2019-04-05T06:21:37.570Z,33.10
2019-04-05T06:24:06.950Z,30.80
2019-04-05T06:26:36.457Z,27.37
2019-04-05T06:29:05.892Z,36.60
2019-04-05T06:31:35.399Z,30.93
2019-04-05T06:34:04.899Z,32.23
2019-04-05T06:36:34.395Z,33.33
2019-04-05T06:39:06.213Z,34.83
2019-04-05T06:41:36.304Z,35.90
2019-04-05T06:44:05.816Z,42.07
2019-04-05T06:46:35.344Z,37.23
2019-04-05T06:49:04.833Z,33.70
2019-04-05T06:51:35.941Z,34.00
2019-04-05T06:54:08.533Z,39.13
2019-04-05T06:56:38.001Z,33.53
2019-04-05T06:59:07.484Z,38.57
2019-04-05T07:01:36.946Z,27.53
2019-04-05T07:04:06.816Z,27.23
2019-04-05T07:06:36.422Z,33.93
2019-04-05T07:09:06.540Z,35.70
2019-04-05T07:11:36.088Z,37.13
2019-04-05T07:14:05.620Z,33.87
2019-04-05T07:16:35.283Z,28.10
2019-04-05T07:19:04.836Z,30.33
2019-04-05T07:21:34.320Z,33.57
2019-04-05T07:24:03.737Z,29.97
2019-04-05T07:26:33.364Z,34.83
2019-04-05T07:29:02.846Z,35.73
2019-04-05T07:31:32.286Z,28.90
2019-04-05T07:34:01.723Z,35.07
2019-04-05T07:36:31.181Z,34.77
2019-04-05T07:39:00.687Z,35.33
2019-04-05T07:41:32.042Z,30.53
2019-04-05T07:44:01.477Z,39.07
2019-04-05T07:46:31.065Z,38.23
2019-04-05T07:49:00.582Z,37.33
2019-04-05T07:51:31.141Z,43.27
2019-04-05T07:54:00.639Z,38.07
2019-04-05T07:56:31.104Z,39.20
2019-04-05T07:59:00.557Z,34.80
2019-04-05T08:01:30.006Z,34.20
2019-04-05T08:03:59.480Z,33.07
2019-04-05T08:06:29.401Z,32.07
2019-04-05T08:09:02.360Z,33.43
2019-04-05T08:11:34.010Z,34.67
2019-04-05T08:14:03.754Z,33.37
2019-04-05T08:16:33.409Z,35.47
2019-04-05T08:19:02.967Z,36.97
2019-04-05T08:21:32.442Z,40.60
2019-04-05T08:24:01.957Z,34.67
2019-04-05T08:26:32.070Z,39.07
2019-04-05T08:29:01.503Z,41.13
2019-04-05T08:31:30.958Z,36.93
2019-04-05T08:34:00.494Z,35.83
2019-04-05T08:36:32.703Z,38.63
2019-04-05T08:39:01.792Z,32.03
2019-04-05T08:41:32.942Z,35.87
2019-04-05T08:44:02.524Z,32.47
2019-04-05T08:46:32.264Z,35.97
2019-04-05T08:49:10.434Z,38.53
2019-04-05T08:51:32.800Z,32.30
2019-04-05T08:54:02.368Z,32.70
2019-04-05T08:56:31.812Z,33.63
2019-04-05T08:59:01.301Z,32.67
2019-04-05T09:01:30.734Z,30.03
2019-04-05T09:04:00.343Z,33.20
2019-04-05T09:06:29.895Z,32.57
2019-04-05T09:09:00.103Z,32.87
2019-04-05T09:11:29.585Z,31.57
2019-04-05T09:13:59.059Z,34.33
2019-04-05T09:16:28.505Z,33.53
2019-04-05T09:18:57.973Z,29.83
2019-04-05T09:21:27.406Z,35.67
2019-04-05T09:23:59.225Z,30.93
2019-04-05T09:26:28.110Z,29.67
2019-04-05T09:28:57.552Z,34.03
2019-04-05T09:31:26.999Z,31.30
2019-04-05T09:33:56.449Z,28.03
2019-04-05T09:36:25.944Z,37.33
2019-04-05T09:38:55.423Z,30.13
2019-04-05T09:41:24.898Z,27.00
2019-04-05T09:43:54.403Z,36.90
2019-04-05T09:46:23.873Z,30.80
2019-04-05T09:48:53.548Z,34.30
2019-04-05T09:51:23.021Z,34.33
2019-04-05T09:53:52.473Z,36.67
2019-04-05T09:56:23.801Z,32.33
2019-04-05T09:58:53.405Z,34.20
2019-04-05T10:01:22.831Z,31.80
2019-04-05T10:03:55.091Z,30.57
2019-04-05T10:06:24.948Z,31.17
2019-04-05T10:08:54.483Z,33.53
2019-04-05T10:11:24.928Z,36.90
2019-04-05T10:13:54.450Z,28.87
2019-04-05T10:16:23.931Z,31.70
2019-04-05T10:18:53.405Z,32.03
2019-04-05T10:21:22.947Z,36.53
2019-04-05T10:23:53.293Z,37.93
2019-04-05T10:26:22.913Z,32.87
2019-04-05T10:28:52.410Z,37.57
2019-04-05T10:31:21.939Z,29.30
2019-04-05T10:33:51.480Z,30.83
2019-04-05T10:36:20.943Z,30.17
2019-04-05T10:38:50.495Z,29.77
2019-04-05T10:41:22.845Z,31.77
2019-04-05T10:43:52.129Z,33.57
2019-04-05T10:46:22.555Z,36.97
2019-04-05T10:48:52.053Z,33.17
2019-04-05T10:51:21.551Z,30.80
2019-04-05T10:53:51.036Z,34.03
2019-04-05T10:56:20.597Z,30.33
2019-04-05T10:58:50.048Z,32.90
2019-04-05T11:01:19.527Z,37.17
2019-04-05T11:03:49.107Z,31.03
2019-04-05T11:06:18.568Z,35.83
2019-04-05T11:08:48.040Z,30.13
2019-04-05T11:11:17.628Z,28.57
2019-04-05T11:13:47.121Z,27.57
2019-04-05T11:16:16.576Z,31.50
2019-04-05T11:18:46.022Z,33.37
2019-04-05T11:21:16.280Z,33.83
2019-04-05T11:23:46.583Z,26.80
2019-04-05T11:26:16.053Z,35.70
2019-04-05T11:28:45.535Z,33.73
2019-04-05T11:31:15.064Z,28.00
2019-04-05T11:33:44.603Z,30.77
2019-04-05T11:36:14.392Z,29.07
2019-04-05T11:38:44.044Z,28.67
2019-04-05T11:41:13.887Z,33.90
2019-04-05T11:43:44.280Z,29.87
2019-04-05T11:46:13.867Z,38.13
2019-04-05T11:48:44.170Z,38.23
2019-04-05T11:51:13.706Z,36.17
2019-04-05T11:53:43.141Z,30.57
2019-04-05T11:56:14.950Z,30.03
2019-04-05T11:58:48.506Z,40.40
2019-04-05T12:01:18.047Z,31.20
2019-04-05T12:03:47.646Z,31.80
2019-04-05T12:06:17.127Z,31.40
2019-04-05T12:08:47.688Z,29.80
2019-04-05T12:11:17.279Z,29.30
2019-04-05T12:13:47.723Z,40.50
2019-04-05T12:16:18.315Z,29.50
2019-04-05T12:18:48.023Z,31.07
2019-04-05T12:21:20.645Z,30.73
2019-04-05T12:23:48.543Z,30.23
2019-04-05T12:26:18.059Z,36.53
2019-04-05T12:28:54.016Z,27.60
2019-04-05T12:31:25.067Z,34.47
2019-04-05T12:33:54.517Z,29.47
2019-04-05T12:36:24.096Z,28.17
2019-04-05T12:38:54.338Z,26.70
2019-04-05T12:41:24.042Z,29.87
2019-04-05T12:44:19.742Z,33.87
2019-04-05T12:46:50.281Z,23.93
2019-04-05T12:49:20.847Z,27.83
2019-04-05T12:51:50.324Z,27.67
2019-04-05T12:54:19.996Z,31.17
2019-04-05T12:56:49.478Z,26.50
2019-04-05T12:59:18.958Z,27.13
2019-04-05T13:01:48.450Z,29.07
2019-04-05T13:04:20.325Z,24.07
2019-04-05T13:06:52.917Z,26.60
2019-04-05T13:09:23.524Z,27.93
2019-04-05T13:11:56.522Z,26.33
2019-04-05T13:14:26.489Z,27.47
2019-04-05T13:16:56.503Z,25.80
2019-04-05T13:19:25.950Z,30.33
2019-04-05T13:21:56.595Z,47.73
2019-04-05T13:24:26.073Z,64.53
2019-04-05T13:26:55.630Z,42.70
2019-04-05T13:29:25.087Z,42.90
2019-04-05T13:31:55.656Z,30.53
2019-04-05T13:34:26.040Z,36.60
2019-04-05T13:36:55.945Z,32.27
2019-04-05T13:39:27.473Z,37.87
2019-04-05T13:41:56.666Z,29.70
2019-04-05T13:44:31.574Z,30.43
2019-04-05T13:46:58.765Z,28.77
2019-04-05T13:49:28.242Z,25.87
2019-04-05T13:51:57.669Z,27.47
2019-04-05T13:54:27.128Z,26.93
2019-04-05T13:56:57.627Z,26.33
2019-04-05T13:59:27.214Z,27.67
2019-04-05T14:02:05.943Z,25.17
2019-04-05T14:04:29.724Z,27.67
2019-04-05T14:06:58.894Z,26.13
2019-04-05T14:09:28.332Z,31.73
2019-04-05T14:11:57.823Z,27.00
2019-04-05T14:14:28.520Z,34.90
2019-04-05T14:16:58.068Z,29.93
2019-04-05T14:19:28.775Z,25.23
2019-04-05T14:22:08.305Z,25.47
2019-04-05T14:24:30.542Z,26.80
2019-04-05T14:27:02.871Z,27.83
2019-04-05T14:29:33.153Z,27.17
2019-04-05T14:32:19.415Z,24.13
2019-04-05T14:34:33.519Z,30.30
2019-04-05T14:37:02.991Z,28.47
2019-04-05T14:39:32.498Z,23.93
2019-04-05T14:42:09.630Z,28.83
2019-04-05T14:44:33.242Z,22.37
2019-04-05T14:47:03.728Z,26.57
2019-04-05T14:49:33.254Z,24.87
2019-04-05T14:52:02.894Z,26.17
2019-04-05T14:54:32.437Z,29.37
2019-04-05T14:57:05.632Z,22.63
2019-04-05T14:59:33.998Z,28.00
2019-04-05T15:02:03.652Z,24.47
2019-04-05T15:04:33.222Z,27.37
2019-04-05T15:07:02.693Z,27.17
2019-04-05T15:09:32.136Z,25.23
2019-04-05T15:12:01.696Z,26.17
2019-04-05T15:14:31.151Z,26.47
2019-04-05T15:17:00.738Z,24.13
2019-04-05T15:19:30.334Z,22.70
2019-04-05T15:22:05.520Z,21.50
2019-04-05T15:24:30.944Z,28.47
2019-04-05T15:27:00.424Z,23.20
2019-04-05T15:29:29.936Z,25.77
2019-04-05T15:31:59.971Z,24.73
2019-04-05T15:34:29.417Z,24.97
2019-04-05T15:37:01.566Z,27.93
2019-04-05T15:39:32.297Z,21.63
2019-04-05T15:42:01.792Z,26.93
2019-04-05T15:44:31.262Z,23.47
2019-04-05T15:47:00.699Z,22.23
2019-04-05T15:49:30.218Z,27.87
2019-04-05T15:51:59.684Z,30.30
2019-04-05T15:54:29.399Z,25.50
2019-04-05T15:57:03.375Z,25.70
2019-04-05T15:59:33.298Z,30.60
2019-04-05T16:02:03.907Z,27.47
2019-04-05T16:04:33.910Z,23.50
2019-04-05T16:07:03.424Z,29.83
2019-04-05T16:09:34.382Z,25.23
2019-04-05T16:12:04.173Z,27.63
2019-04-05T16:14:34.983Z,30.40
2019-04-05T16:17:04.489Z,29.23
2019-04-05T16:19:34.050Z,30.73
2019-04-05T16:22:05.230Z,25.57
2019-04-05T16:24:35.990Z,23.00
2019-04-05T16:27:05.504Z,26.67
2019-04-05T16:29:35.088Z,28.87
2019-04-05T16:32:04.675Z,26.80
2019-04-05T16:34:34.238Z,27.73
2019-04-05T16:37:03.663Z,26.70
2019-04-05T16:39:33.140Z,27.57
2019-04-05T16:42:02.707Z,26.63
2019-04-05T16:44:32.192Z,31.00
2019-04-05T16:47:01.654Z,23.37
2019-04-05T16:49:31.212Z,27.80
2019-04-05T16:52:00.654Z,24.17
2019-04-05T16:54:31.118Z,27.17
2019-04-05T16:57:00.655Z,28.10
2019-04-05T16:59:31.199Z,30.37
2019-04-05T17:02:00.713Z,27.03
2019-04-05T17:04:30.243Z,25.20
2019-04-05T17:06:59.731Z,24.77
2019-04-05T17:09:29.181Z,28.97
2019-04-05T17:11:58.642Z,31.53
2019-04-05T17:14:28.176Z,27.80
2019-04-05T17:16:57.622Z,25.80
2019-04-05T17:19:27.084Z,25.53
2019-04-05T17:21:56.526Z,31.17
2019-04-05T17:24:26.045Z,27.07
2019-04-05T17:26:55.536Z,27.33
2019-04-05T17:29:25.066Z,27.43
2019-04-05T17:31:54.603Z,29.77
2019-04-05T17:34:24.055Z,24.63
2019-04-05T17:36:53.814Z,28.10
2019-04-05T17:39:23.380Z,26.37
2019-04-05T17:41:52.830Z,27.30
2019-04-05T17:44:22.344Z,27.03
2019-04-05T17:46:51.822Z,29.70
2019-04-05T17:49:21.275Z,34.40
2019-04-05T17:51:50.855Z,34.30
2019-04-05T17:54:20.352Z,34.50
2019-04-05T17:56:49.945Z,29.07
2019-04-05T17:59:19.535Z,28.70
2019-04-05T18:01:49.303Z,32.70
2019-04-05T18:04:19.839Z,28.53
2019-04-05T18:06:49.364Z,29.63
2019-04-05T18:09:18.885Z,36.63
2019-04-05T18:11:48.420Z,32.80
2019-04-05T18:14:17.879Z,34.43
2019-04-05T18:16:47.360Z,28.50
2019-04-05T18:19:16.859Z,30.57
2019-04-05T18:21:46.451Z,34.00
2019-04-05T18:24:15.920Z,33.47
2019-04-05T18:26:45.367Z,30.87
2019-04-05T18:29:14.873Z,29.07
2019-04-05T18:31:44.328Z,31.30
2019-04-05T18:34:13.774Z,31.87
2019-04-05T18:36:43.254Z,31.43
2019-04-05T18:39:13.030Z,34.83
2019-04-05T18:41:42.560Z,30.47
2019-04-05T18:44:12.019Z,28.27
2019-04-05T18:46:41.472Z,36.40
2019-04-05T18:49:11.287Z,36.47
2019-04-05T18:51:40.744Z,33.27
2019-04-05T18:54:10.264Z,35.83
2019-04-05T18:56:39.693Z,29.97
2019-04-05T18:59:09.153Z,36.90
2019-04-05T19:01:38.602Z,34.77
2019-04-05T19:04:08.076Z,35.50
2019-04-05T19:06:37.497Z,43.13
2019-04-05T19:09:07.733Z,42.33
2019-04-05T19:11:38.097Z,44.43
2019-04-05T19:14:07.702Z,38.93
2019-04-05T19:16:37.651Z,39.35
2019-04-05T19:19:07.313Z,38.07
2019-04-05T19:21:36.923Z,39.23
2019-04-05T19:24:06.527Z,40.93
2019-04-05T19:26:37.022Z,44.40
2019-04-05T19:29:06.641Z,43.87
2019-04-05T19:49:14.457Z,50.57
2019-04-05T19:51:45.185Z,42.70
2019-04-05T19:54:14.637Z,41.33
2019-04-05T19:56:44.080Z,39.53
2019-04-05T19:59:13.529Z,44.47
2019-04-05T20:01:42.997Z,47.10
2019-04-05T20:04:12.620Z,44.17
2019-04-05T20:06:42.068Z,42.03
2019-04-05T20:09:11.687Z,43.63
2019-04-05T20:11:42.332Z,40.83
2019-04-05T20:14:12.299Z,45.57
2019-04-05T20:16:41.727Z,43.97
2019-04-05T20:19:12.230Z,43.43
2019-04-05T20:21:41.785Z,43.10
2019-04-05T20:24:14.291Z,38.73
2019-04-05T20:26:42.483Z,45.23
2019-04-05T20:29:12.044Z,41.10
2019-04-05T20:31:41.569Z,37.40
2019-04-05T20:34:11.060Z,38.27
2019-04-05T20:36:40.585Z,40.30
2019-04-05T20:39:10.135Z,37.70
2019-04-05T20:41:39.747Z,40.70
2019-04-05T20:44:09.186Z,35.47
2019-04-05T20:46:38.696Z,39.03
2019-04-05T20:49:08.203Z,38.40
2019-04-05T20:51:37.714Z,38.17
2019-04-05T20:54:07.211Z,32.13
2019-04-05T20:56:36.741Z,37.50
2019-04-05T20:59:06.189Z,38.47
2019-04-05T21:01:35.648Z,36.37
2019-04-05T21:04:05.267Z,33.23
2019-04-05T21:06:34.702Z,31.87
2019-04-05T21:09:06.390Z,33.23
2019-04-05T21:11:36.456Z,33.33
2019-04-05T21:14:05.997Z,33.87
2019-04-05T21:16:35.435Z,33.57
2019-04-05T21:19:05.986Z,40.10
2019-04-05T21:21:36.961Z,38.03
2019-04-05T21:24:07.305Z,29.73
2019-04-05T21:26:36.763Z,29.67
2019-04-05T21:29:07.930Z,34.00
2019-04-05T21:31:37.373Z,30.00
2019-04-05T21:34:06.887Z,32.27
2019-04-05T21:36:36.314Z,35.57
2019-04-05T21:39:07.304Z,33.67
2019-04-05T21:41:37.118Z,32.43
2019-04-05T21:44:06.755Z,38.10
2019-04-05T21:46:36.219Z,34.50
2019-04-05T21:49:05.738Z,30.70
2019-04-05T21:51:35.230Z,33.07
2019-04-05T21:54:04.867Z,31.70
2019-04-05T21:56:34.342Z,33.67
2019-04-05T21:59:03.820Z,32.33
2019-04-05T22:01:33.383Z,32.80
2019-04-05T22:04:03.212Z,32.87
2019-04-05T22:06:32.654Z,32.53
2019-04-05T22:09:02.168Z,34.73
2019-04-05T22:11:32.462Z,34.77
2019-04-05T22:14:01.978Z,36.90
2019-04-05T22:16:31.486Z,33.10
2019-04-05T22:19:00.964Z,34.53
2019-04-05T22:21:30.514Z,31.80
2019-04-05T22:23:59.956Z,30.67
2019-04-05T22:26:29.448Z,30.03
2019-04-05T22:28:58.887Z,30.17
2019-04-05T22:32:08.111Z,30.53
2019-04-05T22:34:37.550Z,31.47
2019-04-05T22:37:06.988Z,27.67
2019-04-05T22:39:36.597Z,33.03
2019-04-05T22:42:06.052Z,27.00
2019-04-05T22:44:39.949Z,28.77
2019-04-05T22:47:06.593Z,30.23
2019-04-05T22:49:36.079Z,27.73
2019-04-05T22:52:05.516Z,30.97
2019-04-05T22:54:34.998Z,35.50
2019-04-05T22:57:04.586Z,31.77
2019-04-05T22:59:34.017Z,26.20
2019-04-05T23:02:03.482Z,28.00
2019-04-05T23:04:32.991Z,29.33
2019-04-05T23:07:02.392Z,29.87
2019-04-05T23:09:31.925Z,28.27
2019-04-05T23:12:01.318Z,30.73
2019-04-05T23:17:12.492Z,30.13
2019-04-05T23:19:41.942Z,28.47
2019-04-05T23:22:11.441Z,28.90
2019-04-05T23:24:40.868Z,29.90
2019-04-05T23:27:10.312Z,32.67
2019-04-05T23:29:39.754Z,28.63
2019-04-05T23:32:09.282Z,29.73
2019-04-05T23:34:38.735Z,35.07
2019-04-05T23:37:08.199Z,30.57
2019-04-05T23:39:39.298Z,29.17
2019-04-05T23:42:08.887Z,30.00
2019-04-05T23:44:38.339Z,31.37
2019-04-05T23:47:07.874Z,26.70
2019-04-05T23:49:37.258Z,32.20
2019-04-05T23:52:07.786Z,30.73
2019-04-05T23:54:37.304Z,28.87
2019-04-05T23:57:06.760Z,34.77
2019-04-05T23:59:36.261Z,29.33
